Time;durP1;ratioP1;P1;durP2;ratioP2;P2;SDS_P1;SDS_P2;PMS_P1;PMS_P2;Temp;Humidity;BMP_temperature;BMP_pressure;BME280_temperature;BME280_humidity;BME280_pressure;Samples;Min_cycle;Max_cycle;Signal;HPM_P1;HPM_P2
2022/06/08 00:01:03;;;;;;;4.20;2.70;;;;;;;15.86;61.80;94443.16;5093455;28;20074;-69
2022/06/08 00:03:37;;;;;;;2.60;2.40;;;;;;;15.86;61.56;94434.50;5093191;28;20043;-69
2022/06/08 00:06:03;;;;;;;3.38;2.22;;;;;;;15.94;61.34;94431.03;5093949;28;20031;-69
2022/06/08 00:08:28;;;;;;;3.00;2.15;;;;;;;15.90;61.24;94424.50;5111399;28;20042;-69
2022/06/08 00:10:54;;;;;;;3.20;2.20;;;;;;;15.92;61.24;94427.78;5111302;28;20072;-69
2022/06/08 00:13:19;;;;;;;2.42;2.20;;;;;;;15.91;61.08;94420.88;5111158;28;20088;-69
2022/06/08 00:15:44;;;;;;;3.20;2.20;;;;;;;15.83;61.01;94409.47;5111368;28;20035;-69
2022/06/08 00:18:10;;;;;;;3.55;2.30;;;;;;;15.84;60.93;94415.50;5109972;28;20504;-69
2022/06/08 00:20:36;;;;;;;3.17;2.33;;;;;;;15.73;61.19;94413.25;5093143;28;20028;-69
2022/06/08 00:23:02;;;;;;;3.75;2.60;;;;;;;15.61;61.38;94415.38;5111196;28;20501;-69
2022/06/08 00:25:28;;;;;;;2.50;2.30;;;;;;;15.64;61.18;94402.78;5111358;28;20035;-69
2022/06/08 00:27:53;;;;;;;7.40;2.50;;;;;;;15.83;60.74;94416.50;5111027;28;20161;-69
2022/06/08 00:30:19;;;;;;;3.55;2.45;;;;;;;15.78;61.35;94411.75;5111241;28;20031;-69
2022/06/08 00:32:44;;;;;;;5.30;2.60;;;;;;;15.78;61.42;94421.44;5092928;28;20031;-69
2022/06/08 00:35:10;;;;;;;4.78;2.25;;;;;;;15.82;61.90;94422.72;5093129;28;20043;-69
2022/06/08 00:37:35;;;;;;;2.60;2.40;;;;;;;15.90;61.54;94422.69;5092849;28;20023;-69
2022/06/08 00:40:01;;;;;;;3.67;2.58;;;;;;;15.83;61.86;94419.94;5093023;28;20043;-69
2022/06/08 00:42:27;;;;;;;2.92;2.22;;;;;;;15.74;62.27;94412.25;5109746;28;20024;-69
2022/06/08 00:44:55;;;;;;;3.38;2.53;;;;;;;15.71;62.61;94410.81;5109958;28;20051;-69
2022/06/08 00:47:24;;;;;;;3.80;2.50;;;;;;;15.70;62.93;94413.59;5109791;28;20038;-69
2022/06/08 00:49:58;;;;;;;4.05;2.28;;;;;;;15.71;63.35;94413.44;5094980;28;20070;-68
2022/06/08 00:52:24;;;;;;;2.60;2.30;;;;;;;15.71;60.62;94415.22;5113818;28;20132;-69
2022/06/08 00:54:51;;;;;;;3.53;2.30;;;;;;;15.71;60.82;94400.34;5113931;28;20431;-69
2022/06/08 00:57:25;;;;;;;2.30;2.10;;;;;;;15.82;60.37;94414.84;5119859;27;20027;-69
2022/06/08 00:59:56;;;;;;;4.05;2.40;;;;;;;15.83;60.64;94412.09;5118366;27;20445;-69
2022/06/08 01:02:21;;;;;;;2.60;2.35;;;;;;;15.78;61.73;94408.34;5117559;27;20058;-69
2022/06/08 01:04:46;;;;;;;3.00;2.30;;;;;;;15.80;61.02;94414.22;5135624;27;20046;-69
2022/06/08 01:07:19;;;;;;;3.75;2.20;;;;;;;15.75;61.89;94403.44;5116785;27;20035;-69
2022/06/08 01:09:45;;;;;;;3.72;2.42;;;;;;;15.72;62.33;94406.41;5100015;27;20035;-69
2022/06/08 01:12:17;;;;;;;3.60;2.30;;;;;;;15.69;61.56;94401.50;5133872;27;20027;-69
2022/06/08 01:14:43;;;;;;;2.63;2.30;;;;;;;15.71;61.40;94391.66;5134103;27;20031;-69
2022/06/08 01:17:13;;;;;;;2.90;2.28;;;;;;;15.52;62.05;94390.22;5133692;27;20024;-69
2022/06/08 01:19:40;;;;;;;2.45;2.13;;;;;;;15.48;62.91;94394.16;5117507;27;20070;-69
2022/06/08 01:22:06;;;;;;;3.88;2.35;;;;;;;15.47;63.54;94385.47;5133974;27;20102;-69
2022/06/08 01:24:32;;;;;;;4.47;2.40;;;;;;;15.36;64.01;94386.66;5133780;27;20127;-69
2022/06/08 01:27:00;;;;;;;2.92;2.45;;;;;;;15.42;63.44;94396.44;5116429;27;20031;-69
2022/06/08 01:29:51;;;;;;;3.10;2.47;;;;;;;15.31;62.84;94391.56;5135131;27;20039;-69
2022/06/08 01:32:30;;;;;;;2.92;2.22;;;;;;;15.37;62.74;94393.50;5133670;27;20020;-69
2022/06/08 01:35:20;;;;;;;2.83;2.20;;;;;;;15.41;62.58;94394.00;5133756;27;20041;-69
2022/06/08 01:38:24;;;;;;;4.35;2.40;;;;;;;15.39;62.06;94391.53;5133277;27;20019;-69
2022/06/08 01:40:54;;;;;;;4.15;2.15;;;;;;;15.36;61.95;94391.06;5096388;27;20076;-69
2022/06/08 01:43:34;;;;;;;2.35;2.10;;;;;;;15.31;62.19;94391.56;5133285;27;20032;-69
2022/06/08 01:46:21;;;;;;;3.60;2.25;;;;;;;15.27;61.94;94385.03;5134524;27;20027;-69
2022/06/08 01:49:05;;;;;;;2.75;2.22;;;;;;;15.18;62.19;94389.47;5134848;27;20045;-69
2022/06/08 01:51:51;;;;;;;2.58;2.35;;;;;;;15.17;62.21;94381.75;5133287;27;20031;-69
2022/06/08 01:54:33;;;;;;;6.43;2.67;;;;;;;15.09;62.59;94385.19;5133321;27;20485;-68
2022/06/08 01:57:08;;;;;;;3.40;2.30;;;;;;;15.13;62.30;94390.94;5129274;27;20019;-69
2022/06/08 01:59:42;;;;;;;3.58;2.55;;;;;;;15.10;62.36;94383.41;5114040;28;20032;-69
2022/06/08 02:02:11;;;;;;;2.40;2.20;;;;;;;15.11;61.80;94380.63;5112558;27;20394;-69
2022/06/08 02:04:39;;;;;;;3.47;2.33;;;;;;;14.96;62.53;94395.38;5114084;28;20293;-69
2022/06/08 02:07:23;;;;;;;4.05;2.30;;;;;;;14.98;62.31;94393.38;5112217;28;20454;-69
2022/06/08 02:10:14;;;;;;;3.00;2.30;;;;;;;14.92;62.36;94388.81;5113993;28;20527;-69
2022/06/08 02:12:43;;;;;;;2.67;2.30;;;;;;;14.88;62.69;94395.38;5104504;28;20040;-69
2022/06/08 02:15:16;;;;;;;5.00;2.20;;;;;;;14.89;62.71;94389.13;5095611;28;20039;-69
2022/06/08 02:17:45;;;;;;;2.63;2.38;;;;;;;14.91;62.67;94381.97;5095622;28;20035;-69
2022/06/08 02:20:26;;;;;;;3.80;2.28;;;;;;;14.84;62.90;94384.38;5095574;28;20122;-69
2022/06/08 02:22:55;;;;;;;2.80;2.35;;;;;;;14.87;62.65;94376.22;5111940;28;20107;-69
2022/06/08 02:25:30;;;;;;;2.50;2.05;;;;;;;14.83;62.80;94384.56;5095032;28;20031;-69
2022/06/08 02:28:07;;;;;;;3.88;2.50;;;;;;;14.72;63.00;94368.22;5094672;28;20485;-69
2022/06/08 02:30:42;;;;;;;2.78;2.33;;;;;;;14.77;63.14;94374.78;5095055;28;20030;-69
2022/06/08 02:36:06;;;;;;;;;;;;;;;14.52;64.04;94366.91;5112517;28;20058;-69
2022/06/08 02:38:37;;;;;;;3.20;2.30;;;;;;;14.47;64.43;94363.91;5111693;28;19919;-69
2022/06/08 02:41:03;;;;;;;3.72;2.60;;;;;;;14.31;64.75;94368.13;5078028;28;20035;-69
2022/06/08 02:43:49;;;;;;;3.03;2.42;;;;;;;14.25;64.72;94384.44;5111749;28;20047;-69
2022/06/08 02:46:17;;;;;;;3.13;2.50;;;;;;;14.18;65.00;94383.47;5112545;28;20028;-69
2022/06/08 02:48:42;;;;;;;4.80;2.33;;;;;;;14.13;65.29;94393.56;5111573;28;20041;-69
2022/06/08 02:51:08;;;;;;;4.15;2.70;;;;;;;14.19;65.17;94392.94;5111371;28;20027;-69
2022/06/08 02:53:33;;;;;;;3.25;2.60;;;;;;;14.23;65.07;94389.00;5094357;28;20063;-69
2022/06/08 02:56:08;;;;;;;2.92;2.60;;;;;;;14.22;64.67;94376.94;5111321;28;20023;-69
2022/06/08 02:58:44;;;;;;;3.53;2.53;;;;;;;14.23;64.92;94381.19;5129724;27;20106;-69
2022/06/08 03:01:21;;;;;;;4.60;2.60;;;;;;;14.23;64.94;94378.56;5098500;27;20080;-69
2022/06/08 03:03:52;;;;;;;5.85;2.95;;;;;;;14.31;64.91;94389.03;5115289;27;20439;-69
2022/06/08 03:06:20;;;;;;;2.92;2.63;;;;;;;14.22;64.98;94384.78;5131596;27;20096;-69
2022/06/08 03:08:49;;;;;;;2.97;2.53;;;;;;;14.33;64.80;94398.53;5115195;27;20038;-69
2022/06/08 03:11:15;;;;;;;2.80;2.40;;;;;;;14.16;64.89;94390.63;5131625;27;20019;-68
2022/06/08 03:13:45;;;;;;;3.33;2.72;;;;;;;14.21;65.42;94404.03;5114207;27;20035;-69
2022/06/08 03:16:30;;;;;;;2.53;2.30;;;;;;;14.17;65.47;94400.09;5115041;27;20026;-69
2022/06/08 03:18:55;;;;;;;3.33;2.80;;;;;;;14.10;66.32;94399.13;5131621;27;20035;-69
2022/06/08 03:21:21;;;;;;;3.20;2.85;;;;;;;14.08;66.34;94406.28;5114138;27;20154;-69
2022/06/08 03:23:48;;;;;;;5.35;2.80;;;;;;;14.11;66.18;94411.19;5114206;27;20027;-69
2022/06/08 03:26:14;;;;;;;3.03;2.60;;;;;;;14.09;66.43;94397.47;5131220;27;20114;-69
2022/06/08 03:28:40;;;;;;;3.25;2.65;;;;;;;14.16;66.06;94403.69;5114130;27;20070;-68
2022/06/08 03:31:05;;;;;;;3.67;2.67;;;;;;;14.20;65.76;94412.84;5131317;27;20027;-69
2022/06/08 03:33:30;;;;;;;2.75;2.53;;;;;;;14.16;65.74;94408.94;5132462;27;20063;-69
2022/06/08 03:35:56;;;;;;;2.92;2.40;;;;;;;14.23;65.65;94415.13;5132475;27;20027;-69
2022/06/08 03:38:21;;;;;;;3.88;2.70;;;;;;;14.30;65.61;94410.09;5130894;27;20039;-68
2022/06/08 03:40:47;;;;;;;3.10;2.63;;;;;;;14.26;65.76;94414.00;5132368;27;20023;-69
2022/06/08 03:43:12;;;;;;;2.90;2.50;;;;;;;14.33;65.43;94417.63;5132209;27;20038;-69
2022/06/08 03:45:44;;;;;;;3.10;2.60;;;;;;;14.34;65.91;94416.63;5132158;27;20035;-69
2022/06/08 03:48:10;;;;;;;2.65;2.45;;;;;;;14.30;65.88;94415.34;5114245;27;20064;-68
2022/06/08 03:50:35;;;;;;;3.20;2.80;;;;;;;14.40;65.92;94415.19;5130985;27;20038;-69
2022/06/08 03:53:13;;;;;;;5.25;2.88;;;;;;;14.50;65.85;94410.63;5131949;27;20111;-69
2022/06/08 03:55:38;;;;;;;3.22;2.78;;;;;;;14.59;65.76;94414.94;5113902;27;20038;-69
2022/06/08 03:58:04;;;;;;;6.45;2.90;;;;;;;14.62;65.76;94411.97;5117616;27;20024;-69
2022/06/08 04:00:29;;;;;;;3.75;3.40;;;;;;;14.74;66.33;94418.56;5093291;28;20065;-69
2022/06/08 04:02:55;;;;;;;7.80;4.10;;;;;;;14.71;66.81;94412.84;5111330;28;20020;-69
2022/06/08 04:05:20;;;;;;;7.10;4.43;;;;;;;14.65;67.30;94411.66;5110358;28;20028;-69
2022/06/08 04:07:46;;;;;;;4.95;3.28;;;;;;;14.72;66.41;94409.25;5111344;28;20463;-69
2022/06/08 04:10:12;;;;;;;4.43;3.00;;;;;;;14.81;65.47;94410.06;5093447;28;20028;-69
2022/06/08 04:12:37;;;;;;;5.53;3.17;;;;;;;14.88;65.77;94409.25;5111329;28;20024;-69
2022/06/08 04:15:03;;;;;;;2.90;2.47;;;;;;;14.99;65.20;94410.72;5093307;28;20035;-68
2022/06/08 04:17:29;;;;;;;3.65;2.60;;;;;;;15.15;64.92;94400.22;5109976;28;20059;-69
2022/06/08 04:19:54;;;;;;;4.25;3.65;;;;;;;15.39;64.81;94403.81;5110309;28;20024;-69
2022/06/08 04:22:20;;;;;;;6.55;3.95;;;;;;;15.35;64.56;94395.50;5111158;28;20031;-69
2022/06/08 04:24:46;;;;;;;5.50;3.88;;;;;;;15.42;65.11;94400.88;5111837;28;20070;-69
2022/06/08 04:27:11;;;;;;;5.55;3.83;;;;;;;15.57;64.69;94395.75;5114062;28;20035;-69
2022/06/08 04:29:37;;;;;;;6.22;3.75;;;;;;;15.67;64.78;94406.03;5097263;28;20536;-69
2022/06/08 04:32:04;;;;;;;4.70;3.90;;;;;;;15.83;65.19;94398.19;5114122;28;20416;-69
2022/06/08 04:34:30;;;;;;;5.13;3.78;;;;;;;15.94;64.58;94392.56;5114318;28;20032;-69
2022/06/08 04:36:55;;;;;;;7.07;3.95;;;;;;;16.14;63.60;94397.41;5115217;28;20036;-69
2022/06/08 04:39:21;;;;;;;9.90;3.95;;;;;;;16.30;63.95;94395.50;5120751;27;20027;-69
2022/06/08 04:41:46;;;;;;;4.68;3.90;;;;;;;16.44;63.76;94399.19;5143967;27;20023;-69
2022/06/08 04:44:11;;;;;;;5.97;3.97;;;;;;;16.45;63.85;94385.09;5156232;27;20034;-69
2022/06/08 04:46:37;;;;;;;4.85;4.35;;;;;;;16.60;63.19;94385.16;5137932;27;20031;-69
2022/06/08 04:49:03;;;;;;;4.55;4.00;;;;;;;16.71;62.58;94389.19;5099417;27;20039;-69
2022/06/08 04:51:28;;;;;;;4.72;3.88;;;;;;;16.91;62.03;94382.53;5134987;27;20027;-70
2022/06/08 04:53:54;;;;;;;5.95;4.00;;;;;;;17.04;61.53;94395.03;5133887;27;20416;-69
2022/06/08 04:56:19;;;;;;;9.27;3.47;;;;;;;17.24;61.03;94392.72;5133618;27;20493;-69
2022/06/08 04:58:45;;;;;;;8.93;3.58;;;;;;;17.43;59.76;94400.09;5134570;27;20046;-69
2022/06/08 05:01:10;;;;;;;6.32;3.47;;;;;;;17.61;58.90;94391.88;5130172;27;20034;-69
2022/06/08 05:03:36;;;;;;;7.57;3.30;;;;;;;17.80;58.31;94397.63;5115175;27;20038;-69
2022/06/08 05:06:02;;;;;;;8.27;3.10;;;;;;;17.93;56.14;94391.72;5133604;27;20473;-69
2022/06/08 05:08:27;;;;;;;3.17;2.63;;;;;;;18.04;55.35;94393.91;5134074;27;20034;-69
2022/06/08 05:10:54;;;;;;;3.42;2.70;;;;;;;18.09;55.45;94396.78;5116693;27;20031;-69
2022/06/08 05:13:20;;;;;;;4.20;3.10;;;;;;;18.18;55.62;94385.19;5115084;27;20126;-70
2022/06/08 05:15:45;;;;;;;4.70;3.03;;;;;;;18.29;55.86;94392.59;5128081;27;20589;-69
2022/06/08 05:18:12;;;;;;;5.22;3.03;;;;;;;18.52;55.98;94404.78;5126392;27;22422;-70
2022/06/08 05:20:38;;;;;;;4.32;3.10;;;;;;;18.71;56.14;94398.91;5129042;27;20027;-70
2022/06/08 05:23:04;;;;;;;7.07;3.53;;;;;;;18.92;55.20;94400.78;5125643;27;20027;-69
2022/06/08 05:25:35;;;;;;;3.58;3.25;;;;;;;18.96;55.31;94401.22;5116878;27;20042;-71
2022/06/08 05:28:01;;;;;;;5.20;2.90;;;;;;;19.15;54.61;94392.69;5128243;27;20511;-70
2022/06/08 05:30:26;;;;;;;4.20;2.83;;;;;;;19.37;54.29;94395.28;5095351;28;20040;-69
2022/06/08 05:32:52;;;;;;;4.65;2.70;;;;;;;19.37;54.36;94390.81;5098480;27;20058;-70
2022/06/08 05:35:17;;;;;;;4.15;3.13;;;;;;;19.37;53.03;94395.28;5132418;27;20027;-70
2022/06/08 05:37:43;;;;;;;5.32;2.97;;;;;;;19.37;53.56;94398.72;5114501;27;20019;-70
2022/06/08 05:40:09;;;;;;;6.57;3.10;;;;;;;19.45;54.27;94394.34;5103622;27;20039;-70
2022/06/08 05:42:35;;;;;;;3.75;2.90;;;;;;;19.44;54.73;94406.66;5115206;27;20019;-70
2022/06/08 05:45:00;;;;;;;5.05;3.17;;;;;;;19.48;54.07;94391.31;5095957;28;20516;-70
2022/06/08 05:47:26;;;;;;;4.97;3.17;;;;;;;19.62;54.25;94404.38;5114994;27;20016;-70
2022/06/08 05:49:51;;;;;;;6.70;3.10;;;;;;;19.71;52.97;94405.06;5124875;27;20020;-68
2022/06/08 05:52:17;;;;;;;3.80;3.05;;;;;;;19.73;52.77;94400.44;5129711;27;20047;-68
2022/06/08 05:54:44;;;;;;;4.15;2.90;;;;;;;19.80;53.43;94396.00;5116269;27;20035;-68
2022/06/08 05:57:10;;;;;;;4.90;3.20;;;;;;;19.93;52.86;94394.47;5133081;27;20024;-68
2022/06/08 05:59:36;;;;;;;5.10;3.35;;;;;;;19.96;51.86;94396.72;5132832;27;20035;-68
2022/06/08 06:02:03;;;;;;;5.72;3.30;;;;;;;19.92;52.15;94398.91;5131039;27;20405;-68
2022/06/08 06:04:28;;;;;;;5.70;2.90;;;;;;;19.88;52.26;94395.03;5132212;27;20406;-68
2022/06/08 06:06:54;;;;;;;9.32;3.28;;;;;;;19.88;52.62;94399.50;5112311;27;20150;-68
2022/06/08 06:09:20;;;;;;;5.07;3.20;;;;;;;19.98;52.17;94405.25;5132448;27;20031;-68
2022/06/08 06:11:45;;;;;;;3.80;3.25;;;;;;;19.98;53.20;94399.97;5133039;27;20027;-68
2022/06/08 06:14:11;;;;;;;5.32;3.17;;;;;;;19.90;52.61;94398.28;5114855;27;20120;-68
2022/06/08 06:16:36;;;;;;;5.93;2.97;;;;;;;20.09;53.64;94394.94;5115443;27;20076;-68
2022/06/08 06:19:02;;;;;;;5.13;3.20;;;;;;;20.22;52.44;94390.72;5113223;28;20042;-68
2022/06/08 06:21:28;;;;;;;5.90;3.58;;;;;;;20.36;51.82;94391.59;5111825;27;20459;-68
2022/06/08 06:23:57;;;;;;;3.55;3.25;;;;;;;20.46;51.56;94390.22;5113445;28;20036;-68
2022/06/08 06:26:22;;;;;;;3.42;3.00;;;;;;;20.51;51.37;94379.91;5113670;27;20036;-68
2022/06/08 06:28:48;;;;;;;3.40;2.95;;;;;;;20.75;50.98;94383.03;5121720;27;20039;-68
2022/06/08 06:31:15;;;;;;;5.93;2.92;;;;;;;20.85;50.02;94370.25;5115454;27;20071;-70
2022/06/08 06:33:40;;;;;;;3.72;3.10;;;;;;;21.04;50.87;94366.00;5108677;27;20054;-68
2022/06/08 06:36:06;;;;;;;4.63;3.28;;;;;;;21.14;49.85;94368.25;5127809;27;20500;-68
2022/06/08 06:38:31;;;;;;;6.10;3.38;;;;;;;21.26;49.38;94369.28;5128827;27;20069;-68
2022/06/08 06:40:57;;;;;;;6.07;3.10;;;;;;;21.34;48.04;94363.78;5114555;27;20035;-68
2022/06/08 06:43:22;;;;;;;7.43;3.00;;;;;;;21.28;49.67;94363.78;5117293;27;20477;-68
2022/06/08 06:45:48;;;;;;;4.45;3.20;;;;;;;21.29;48.05;94366.22;5123207;27;20436;-68
2022/06/08 06:48:13;;;;;;;5.80;2.75;;;;;;;21.22;48.67;94348.75;5105529;27;20043;-69
2022/06/08 06:50:39;;;;;;;5.85;2.55;;;;;;;21.47;48.48;94364.81;5111018;28;20028;-68
2022/06/08 06:53:04;;;;;;;2.80;2.30;;;;;;;21.53;49.18;94362.16;5080801;28;20490;-67
2022/06/08 06:55:31;;;;;;;4.47;2.58;;;;;;;21.67;47.89;94356.84;5088604;28;20046;-67
2022/06/08 06:57:57;;;;;;;7.15;2.55;;;;;;;21.71;48.34;94356.25;5110359;28;20126;-67
2022/06/08 07:00:23;;;;;;;5.13;2.33;;;;;;;21.92;45.78;94349.06;5109372;28;20019;-68
2022/06/08 07:02:49;;;;;;;2.63;2.10;;;;;;;21.85;46.71;94352.53;5093495;28;20489;-69
2022/06/08 07:05:17;;;;;;;5.15;2.35;;;;;;;21.97;47.11;94347.41;5092693;28;20047;-67
2022/06/08 07:07:43;;;;;;;3.63;2.40;;;;;;;22.13;48.18;94345.34;5101499;28;20488;-66
2022/06/08 07:10:08;;;;;;;6.07;2.50;;;;;;;22.27;47.81;94341.66;5104250;28;20133;-66
2022/06/08 07:12:34;;;;;;;4.72;2.17;;;;;;;22.44;46.88;94345.44;5094748;28;20024;-68
2022/06/08 07:14:59;;;;;;;4.25;2.05;;;;;;;22.56;45.27;94356.16;5100287;28;20402;-68
2022/06/08 07:17:25;;;;;;;4.88;2.55;;;;;;;22.50;45.59;94354.34;5098365;28;20020;-68
2022/06/08 07:19:51;;;;;;;4.30;2.38;;;;;;;22.62;46.01;94357.97;5081791;28;20058;-68
2022/06/08 07:22:17;;;;;;;3.60;2.30;;;;;;;22.80;45.97;94359.09;5086788;28;20063;-68
2022/06/08 07:24:43;;;;;;;4.28;2.13;;;;;;;22.88;45.17;94361.47;5100400;28;20070;-68
2022/06/08 07:27:08;;;;;;;2.50;2.13;;;;;;;22.88;43.94;94348.25;5096839;28;20063;-66
2022/06/08 07:29:34;;;;;;;2.30;2.00;;;;;;;22.95;45.33;94357.78;5093765;28;20097;-67
2022/06/08 07:31:59;;;;;;;2.83;2.10;;;;;;;23.06;44.26;94350.97;5075040;28;20024;-67
2022/06/08 07:34:24;;;;;;;2.20;1.70;;;;;;;23.17;42.42;94357.41;5105904;28;20031;-67
2022/06/08 07:36:50;;;;;;;3.95;1.88;;;;;;;23.31;42.16;94360.78;5103868;28;20027;-67
2022/06/08 07:39:15;;;;;;;4.13;1.70;;;;;;;23.45;41.74;94359.63;5108620;28;20108;-67
2022/06/08 07:41:43;;;;;;;2.90;1.90;;;;;;;23.56;40.56;94360.75;5109322;28;20023;-67
2022/06/08 07:44:08;;;;;;;2.60;1.70;;;;;;;23.65;39.92;94359.44;5109385;28;20077;-67
2022/06/08 07:46:33;;;;;;;2.17;1.42;;;;;;;23.76;39.17;94363.25;5110100;28;20019;-67
2022/06/08 07:51:43;;;;;;;2.90;1.65;;;;;;;23.71;39.53;94365.75;5095448;27;20046;-67
2022/06/08 07:54:09;;;;;;;4.45;2.00;;;;;;;23.70;39.76;94366.75;5126643;27;20031;-67
2022/06/08 07:56:34;;;;;;;3.65;1.92;;;;;;;23.61;39.96;94361.72;5128883;27;20060;-67
2022/06/08 07:59:00;;;;;;;3.55;1.70;;;;;;;23.69;39.90;94363.28;5129281;27;20496;-67
2022/06/08 08:01:25;;;;;;;4.80;2.05;;;;;;;23.67;40.12;94354.75;5128626;27;20024;-67
2022/06/08 08:03:51;;;;;;;3.08;1.45;;;;;;;23.89;40.54;94368.41;5131405;27;20031;-67
2022/06/08 08:06:16;;;;;;;2.95;1.60;;;;;;;23.94;38.76;94351.84;5109983;28;20069;-67
2022/06/08 08:08:41;;;;;;;6.82;1.80;;;;;;;24.05;38.14;94362.53;5109377;28;20093;-67
2022/06/08 08:11:07;;;;;;;3.40;1.50;;;;;;;24.01;38.28;94358.69;5111776;28;20027;-67
2022/06/08 08:13:33;;;;;;;2.35;1.70;;;;;;;24.04;38.63;94360.09;5130250;27;20719;-67
2022/06/08 08:15:58;;;;;;;3.08;1.70;;;;;;;23.77;38.84;94364.88;5126634;27;20031;-67
2022/06/08 08:18:23;;;;;;;4.72;1.80;;;;;;;23.72;39.01;94356.78;5126737;27;20040;-67
2022/06/08 08:20:49;;;;;;;4.10;1.52;;;;;;;23.82;39.38;94349.09;5133781;27;20042;-67
2022/06/08 08:23:14;;;;;;;2.50;1.65;;;;;;;23.95;39.28;94346.31;5111743;27;20212;-67
2022/06/08 08:25:40;;;;;;;3.53;1.50;;;;;;;24.00;38.24;94338.50;5118143;28;20037;-67
2022/06/08 08:28:06;;;;;;;1.90;1.50;;;;;;;24.13;38.20;94348.19;5129461;27;20023;-67
2022/06/08 08:30:31;;;;;;;1.98;1.40;;;;;;;24.20;38.71;94342.78;5132123;27;20027;-67
2022/06/08 08:32:57;;;;;;;2.88;1.50;;;;;;;24.30;38.72;94337.75;5112934;28;20557;-67
2022/06/08 08:35:24;;;;;;;3.55;1.70;;;;;;;24.43;38.64;94332.31;5110164;28;20491;-67
2022/06/08 08:37:50;;;;;;;2.10;1.38;;;;;;;24.48;35.35;94331.63;5129549;27;20099;-67
2022/06/08 08:40:46;;;;;;;2.20;1.35;;;;;;;24.26;36.21;94328.63;5119811;28;20118;-67
2022/06/08 08:43:17;;;;;;;1.83;1.33;;;;;;;24.08;37.61;94330.25;5126832;27;20184;-69
2022/06/08 08:46:06;;;;;;;3.97;1.40;;;;;;;24.13;36.07;94323.50;5110156;28;20036;-67
2022/06/08 08:48:53;;;;;;;2.75;1.40;;;;;;;24.05;35.15;94320.09;5132549;27;20046;-67
2022/06/08 08:51:24;;;;;;;3.08;1.45;;;;;;;23.99;36.49;94310.38;5142382;27;20063;-67
2022/06/08 08:54:15;;;;;;;2.83;1.50;;;;;;;24.11;38.03;94317.59;5117391;27;20197;-67
2022/06/08 08:56:42;;;;;;;2.10;1.50;;;;;;;24.28;37.40;94318.59;5105171;28;20078;-67
2022/06/08 08:59:16;;;;;;;2.55;1.33;;;;;;;24.34;36.99;94312.38;5130030;27;20028;-67
2022/06/08 09:01:42;;;;;;;1.70;1.30;;;;;;;24.45;36.25;94310.84;5103988;28;20477;-67
2022/06/08 09:04:17;;;;;;;2.80;1.25;;;;;;;24.56;35.63;94314.59;5128259;28;20061;-67
2022/06/08 09:06:43;;;;;;;3.28;1.27;;;;;;;24.50;35.60;94298.53;5107712;28;20031;-67
2022/06/08 09:09:14;;;;;;;2.67;1.33;;;;;;;24.53;36.02;94299.91;5125057;28;20042;-67
2022/06/08 09:11:41;;;;;;;2.15;1.33;;;;;;;24.61;36.30;94304.09;5131848;27;20027;-67
2022/06/08 09:14:15;;;;;;;1.90;1.30;;;;;;;24.70;36.33;94310.69;5133253;27;20396;-67
2022/06/08 09:16:43;;;;;;;2.83;1.40;;;;;;;24.63;37.94;94304.69;5123926;27;20019;-67
2022/06/08 09:19:21;;;;;;;4.32;1.35;;;;;;;24.70;35.15;94300.09;5137820;27;20080;-67
2022/06/08 09:21:47;;;;;;;2.05;1.40;;;;;;;24.63;36.34;94304.69;5131973;27;20157;-67
2022/06/08 09:24:35;;;;;;;4.07;1.30;;;;;;;24.76;37.41;94304.47;5123694;27;20049;-68
2022/06/08 09:27:27;;;;;;;2.47;1.40;;;;;;;24.86;34.67;94296.78;5125861;27;20390;-67
2022/06/08 09:29:56;;;;;;;2.53;1.30;;;;;;;24.76;34.96;94293.84;5132488;27;20084;-68
2022/06/08 09:32:44;;;;;;;1.35;1.10;;;;;;;24.79;33.89;94297.91;5132380;27;20031;-67
2022/06/08 09:35:30;;;;;;;2.20;1.20;;;;;;;24.71;33.76;94301.69;5133014;27;20027;-67
2022/06/08 09:37:59;;;;;;;2.53;1.20;;;;;;;24.74;35.46;94290.66;5129941;27;20122;-67
2022/06/08 09:40:40;;;;;;;1.60;1.30;;;;;;;24.88;36.02;94284.09;5133045;27;20023;-67
2022/06/08 09:43:30;;;;;;;3.55;1.50;;;;;;;25.06;36.97;94277.88;5110686;27;20488;-67
2022/06/08 09:45:55;;;;;;;2.22;1.40;;;;;;;25.08;35.66;94278.44;5124929;27;20504;-67
2022/06/08 09:51:46;;;;;;;2.90;1.33;;;;;;;25.13;35.06;94277.75;5153796;27;20094;-67
2022/06/08 09:54:29;;;;;;;1.70;1.30;;;;;;;25.11;35.27;94275.34;5141118;27;20023;-67
2022/06/08 09:57:10;;;;;;;3.05;1.30;;;;;;;25.12;35.50;94276.94;5131033;27;20041;-67
2022/06/08 10:00:03;;;;;;;2.70;1.13;;;;;;;25.09;34.51;94273.94;5112026;27;20035;-67
2022/06/08 10:03:10;;;;;;;3.67;1.30;;;;;;;25.06;35.30;94267.25;5111844;28;20409;-67
2022/06/08 10:05:48;;;;;;;2.67;1.30;;;;;;;25.08;35.43;94253.75;5128779;27;20035;-67
2022/06/08 10:08:21;;;;;;;4.40;1.30;;;;;;;25.12;35.13;94265.50;5126586;27;20042;-67
2022/06/08 10:10:53;;;;;;;2.60;1.30;;;;;;;25.15;36.11;94255.25;5130685;27;20026;-70
2022/06/08 10:13:30;;;;;;;3.78;1.20;;;;;;;25.25;35.79;94260.00;5111403;27;20043;-69
2022/06/08 10:16:08;;;;;;;2.95;1.30;;;;;;;25.21;33.63;94258.84;5132522;27;20019;-68
2022/06/08 10:18:42;;;;;;;2.38;1.40;;;;;;;25.17;33.63;94255.03;5113214;27;20031;-68
2022/06/08 10:21:16;;;;;;;1.70;1.08;;;;;;;25.07;35.34;94242.28;5130498;27;20023;-68
2022/06/08 10:23:57;;;;;;;2.92;1.23;;;;;;;25.14;33.84;94242.19;5143139;27;20034;-68
2022/06/08 10:26:36;;;;;;;;;;;;;;;25.16;35.19;94238.28;5127832;27;20036;-68
2022/06/08 10:29:11;;;;;;;2.40;1.33;;;;;;;25.21;35.33;94234.91;5122639;27;19958;-68
2022/06/08 10:31:52;;;;;;;2.03;1.27;;;;;;;25.08;35.24;94232.47;5130105;27;20481;-68
2022/06/08 10:34:22;;;;;;;2.03;1.40;;;;;;;25.14;35.75;94231.56;5132158;27;20103;-68
2022/06/08 10:36:52;;;;;;;;;;;;;;;25.17;35.64;94233.78;5132452;27;20027;-68
2022/06/08 10:39:17;;;;;;;2.42;1.30;;;;;;;25.16;35.64;94235.63;5108373;28;19923;-69
2022/06/08 10:44:50;;;;;;;2.88;1.50;;;;;;;25.24;35.13;94226.50;5118208;27;20050;-68
2022/06/08 10:47:32;;;;;;;2.00;1.40;;;;;;;25.26;35.26;94221.75;5112220;27;20035;-68
2022/06/08 10:50:01;;;;;;;1.65;1.10;;;;;;;25.22;35.09;94223.25;5111816;27;20047;-68
2022/06/08 10:52:28;;;;;;;3.22;1.40;;;;;;;25.37;34.78;94220.13;5132374;27;20489;-69
2022/06/08 10:55:18;;;;;;;2.42;1.40;;;;;;;25.45;34.02;94218.97;5133021;27;20113;-69
2022/06/08 10:57:49;;;;;;;2.00;1.30;;;;;;;25.44;34.08;94217.38;5120867;27;20027;-68
2022/06/08 11:00:18;;;;;;;1.55;1.20;;;;;;;25.47;34.71;94214.22;5119592;27;20036;-68
2022/06/08 11:03:00;;;;;;;3.22;1.20;;;;;;;25.63;35.20;94219.63;5121533;27;20072;-68
2022/06/08 11:05:30;;;;;;;2.10;1.23;;;;;;;25.54;34.43;94221.03;5116995;27;20038;-68
2022/06/08 11:07:59;;;;;;;;;;;;;;;25.58;35.16;94221.38;5115632;27;20038;-69
2022/06/08 11:10:50;;;;;;;1.80;1.40;;;;;;;25.73;34.59;94213.69;5127173;27;19912;-68
2022/06/08 11:13:22;;;;;;;2.20;1.25;;;;;;;25.77;34.43;94209.53;5123565;27;20035;-68
2022/06/08 11:19:14;;;;;;;5.97;1.50;;;;;;;25.91;34.13;94210.13;5129843;27;20444;-68
2022/06/08 11:21:44;;;;;;;2.50;1.50;;;;;;;25.97;33.78;94201.19;5130402;27;20450;-68
2022/06/08 11:24:30;;;;;;;4.20;1.30;;;;;;;25.91;34.28;94195.97;5108644;28;20042;-68
2022/06/08 11:27:11;;;;;;;2.55;1.40;;;;;;;25.88;34.27;94199.13;5102297;27;20058;-68
2022/06/08 11:29:50;;;;;;;3.10;1.23;;;;;;;25.83;34.54;94189.19;5130182;27;20031;-68
2022/06/08 11:32:32;;;;;;;2.10;1.40;;;;;;;25.87;33.91;94187.66;5130419;27;20106;-69
2022/06/08 11:35:35;;;;;;;2.58;1.40;;;;;;;25.85;34.66;94179.94;5129201;27;20031;-67
2022/06/08 11:38:26;;;;;;;1.45;1.20;;;;;;;25.91;33.88;94177.34;5119030;27;20139;-67
2022/06/08 11:40:59;;;;;;;2.35;1.40;;;;;;;26.01;36.16;94178.34;5113666;27;20033;-67
2022/06/08 11:43:29;;;;;;;2.13;1.40;;;;;;;25.92;34.25;94168.34;5092062;28;20027;-68
2022/06/08 11:45:55;;;;;;;3.30;1.40;;;;;;;25.91;35.18;94161.41;5091603;28;20035;-68
2022/06/08 11:48:22;;;;;;;2.40;1.55;;;;;;;25.85;35.13;94163.97;5110336;28;20039;-67
2022/06/08 11:50:50;;;;;;;2.67;1.45;;;;;;;25.80;34.37;94158.53;5111654;28;20019;-68
2022/06/08 11:53:24;;;;;;;2.55;1.45;;;;;;;25.82;35.61;94163.59;5110197;28;20061;-68
2022/06/08 11:56:14;;;;;;;3.92;1.40;;;;;;;25.86;35.07;94154.16;5110365;28;20019;-68
2022/06/08 11:58:45;;;;;;;3.65;1.55;;;;;;;25.84;34.21;94157.03;5111692;28;20039;-68
2022/06/08 12:01:16;;;;;;;2.20;1.40;;;;;;;25.88;33.70;94161.88;5093443;28;20034;-68
2022/06/08 12:03:47;;;;;;;3.53;1.38;;;;;;;25.99;33.94;94161.00;5092322;28;20031;-68